sensor_id;sensor_type;location;lat;lon;timestamp;P1;durP1;ratioP1;P2;durP2;ratioP2
79638;SDS011;69114;49.108;8.280;2023-04-22T00:00:09;7.50;;;4.97;;
79638;SDS011;69114;49.108;8.280;2023-04-22T00:02:36;8.15;;;5.90;;
79638;SDS011;69114;49.108;8.280;2023-04-22T00:05:02;10.05;;;5.63;;
79638;SDS011;69114;49.108;8.280;2023-04-22T00:07:29;7.57;;;6.20;;
79638;SDS011;69114;49.108;8.280;2023-04-22T00:09:54;6.88;;;5.38;;
79638;SDS011;69114;49.108;8.280;2023-04-22T00:12:19;6.45;;;5.32;;
79638;SDS011;69114;49.108;8.280;2023-04-22T00:14:45;8.45;;;5.45;;
79638;SDS011;69114;49.108;8.280;2023-04-22T00:17:11;8.35;;;5.00;;
79638;SDS011;69114;49.108;8.280;2023-04-22T00:19:36;6.97;;;5.20;;
79638;SDS011;69114;49.108;8.280;2023-04-22T00:22:02;6.90;;;5.18;;
79638;SDS011;69114;49.108;8.280;2023-04-22T00:24:27;6.07;;;4.70;;
79638;SDS011;69114;49.108;8.280;2023-04-22T00:26:53;6.80;;;5.13;;
79638;SDS011;69114;49.108;8.280;2023-04-22T00:29:19;7.35;;;5.35;;
79638;SDS011;69114;49.108;8.280;2023-04-22T00:31:44;6.57;;;5.13;;
79638;SDS011;69114;49.108;8.280;2023-04-22T00:34:09;7.20;;;5.43;;
79638;SDS011;69114;49.108;8.280;2023-04-22T00:36:35;7.57;;;6.03;;
79638;SDS011;69114;49.108;8.280;2023-04-22T00:39:00;7.95;;;6.15;;
79638;SDS011;69114;49.108;8.280;2023-04-22T00:41:26;8.02;;;5.88;;
79638;SDS011;69114;49.108;8.280;2023-04-22T00:43:51;8.25;;;6.53;;
79638;SDS011;69114;49.108;8.280;2023-04-22T00:46:17;7.70;;;6.22;;
79638;SDS011;69114;49.108;8.280;2023-04-22T00:48:43;9.70;;;6.97;;
79638;SDS011;69114;49.108;8.280;2023-04-22T00:51:09;9.75;;;6.47;;
79638;SDS011;69114;49.108;8.280;2023-04-22T00:53:35;9.90;;;6.97;;
79638;SDS011;69114;49.108;8.280;2023-04-22T00:56:00;9.50;;;7.25;;
79638;SDS011;69114;49.108;8.280;2023-04-22T00:58:26;9.13;;;6.47;;
79638;SDS011;69114;49.108;8.280;2023-04-22T01:00:53;8.95;;;7.22;;
79638;SDS011;69114;49.108;8.280;2023-04-22T01:03:19;9.55;;;6.63;;
79638;SDS011;69114;49.108;8.280;2023-04-22T01:05:46;10.77;;;7.25;;
79638;SDS011;69114;49.108;8.280;2023-04-22T01:08:13;9.07;;;7.00;;
79638;SDS011;69114;49.108;8.280;2023-04-22T01:10:39;9.57;;;6.95;;
79638;SDS011;69114;49.108;8.280;2023-04-22T01:13:05;9.27;;;6.95;;
79638;SDS011;69114;49.108;8.280;2023-04-22T01:15:31;9.70;;;6.72;;
79638;SDS011;69114;49.108;8.280;2023-04-22T01:17:56;9.55;;;7.38;;
79638;SDS011;69114;49.108;8.280;2023-04-22T01:20:23;11.35;;;7.13;;
79638;SDS011;69114;49.108;8.280;2023-04-22T01:22:53;11.20;;;7.68;;
79638;SDS011;69114;49.108;8.280;2023-04-22T01:25:20;10.65;;;7.10;;
79638;SDS011;69114;49.108;8.280;2023-04-22T01:27:45;10.40;;;6.97;;
79638;SDS011;69114;49.108;8.280;2023-04-22T01:30:11;10.25;;;7.20;;
79638;SDS011;69114;49.108;8.280;2023-04-22T01:32:38;10.13;;;7.72;;
79638;SDS011;69114;49.108;8.280;2023-04-22T01:35:04;10.63;;;7.32;;
79638;SDS011;69114;49.108;8.280;2023-04-22T01:37:29;9.57;;;7.07;;
79638;SDS011;69114;49.108;8.280;2023-04-22T01:39:56;9.57;;;6.97;;
79638;SDS011;69114;49.108;8.280;2023-04-22T01:42:22;9.60;;;7.00;;
79638;SDS011;69114;49.108;8.280;2023-04-22T01:44:49;10.40;;;7.38;;
79638;SDS011;69114;49.108;8.280;2023-04-22T01:47:14;10.07;;;7.07;;
79638;SDS011;69114;49.108;8.280;2023-04-22T01:49:39;9.98;;;7.40;;
79638;SDS011;69114;49.108;8.280;2023-04-22T01:52:05;10.73;;;8.15;;
79638;SDS011;69114;49.108;8.280;2023-04-22T01:54:30;10.43;;;7.15;;
79638;SDS011;69114;49.108;8.280;2023-04-22T01:56:56;9.88;;;6.55;;
79638;SDS011;69114;49.108;8.280;2023-04-22T01:59:22;8.38;;;6.65;;
79638;SDS011;69114;49.108;8.280;2023-04-22T02:01:47;9.65;;;6.45;;
79638;SDS011;69114;49.108;8.280;2023-04-22T02:04:13;8.48;;;6.75;;
79638;SDS011;69114;49.108;8.280;2023-04-22T02:06:38;9.38;;;6.40;;
79638;SDS011;69114;49.108;8.280;2023-04-22T02:09:04;8.77;;;6.18;;
79638;SDS011;69114;49.108;8.280;2023-04-22T02:11:29;8.65;;;6.43;;
79638;SDS011;69114;49.108;8.280;2023-04-22T02:13:55;10.20;;;6.70;;
79638;SDS011;69114;49.108;8.280;2023-04-22T02:16:20;8.18;;;6.88;;
79638;SDS011;69114;49.108;8.280;2023-04-22T02:18:46;10.93;;;7.55;;
79638;SDS011;69114;49.108;8.280;2023-04-22T02:21:11;11.30;;;7.40;;
79638;SDS011;69114;49.108;8.280;2023-04-22T02:23:37;12.40;;;8.50;;
79638;SDS011;69114;49.108;8.280;2023-04-22T02:26:03;11.52;;;8.98;;
79638;SDS011;69114;49.108;8.280;2023-04-22T02:28:29;11.88;;;8.23;;
79638;SDS011;69114;49.108;8.280;2023-04-22T02:30:54;11.53;;;8.23;;
79638;SDS011;69114;49.108;8.280;2023-04-22T02:33:19;12.07;;;8.27;;
79638;SDS011;69114;49.108;8.280;2023-04-22T02:35:45;10.48;;;7.28;;
79638;SDS011;69114;49.108;8.280;2023-04-22T02:38:10;12.02;;;7.78;;
79638;SDS011;69114;49.108;8.280;2023-04-22T02:40:35;9.85;;;7.20;;
79638;SDS011;69114;49.108;8.280;2023-04-22T02:43:01;10.38;;;8.13;;
79638;SDS011;69114;49.108;8.280;2023-04-22T02:45:26;9.77;;;7.07;;
79638;SDS011;69114;49.108;8.280;2023-04-22T02:47:51;10.53;;;7.83;;
79638;SDS011;69114;49.108;8.280;2023-04-22T02:50:17;9.47;;;7.23;;
79638;SDS011;69114;49.108;8.280;2023-04-22T02:52:42;12.48;;;8.60;;
79638;SDS011;69114;49.108;8.280;2023-04-22T02:55:08;12.38;;;8.75;;
79638;SDS011;69114;49.108;8.280;2023-04-22T02:57:33;12.38;;;7.68;;
79638;SDS011;69114;49.108;8.280;2023-04-22T02:59:59;13.55;;;8.10;;
79638;SDS011;69114;49.108;8.280;2023-04-22T03:02:25;12.77;;;8.93;;
79638;SDS011;69114;49.108;8.280;2023-04-22T03:04:50;12.85;;;8.93;;
79638;SDS011;69114;49.108;8.280;2023-04-22T03:07:18;15.43;;;8.35;;
79638;SDS011;69114;49.108;8.280;2023-04-22T03:09:43;12.73;;;8.25;;
79638;SDS011;69114;49.108;8.280;2023-04-22T03:12:09;11.80;;;7.82;;
79638;SDS011;69114;49.108;8.280;2023-04-22T03:14:34;13.77;;;8.52;;
79638;SDS011;69114;49.108;8.280;2023-04-22T03:17:00;12.38;;;8.52;;
79638;SDS011;69114;49.108;8.280;2023-04-22T03:19:25;10.07;;;7.57;;
79638;SDS011;69114;49.108;8.280;2023-04-22T03:21:50;11.50;;;8.33;;
79638;SDS011;69114;49.108;8.280;2023-04-22T03:24:15;10.27;;;7.03;;
79638;SDS011;69114;49.108;8.280;2023-04-22T03:26:41;11.85;;;8.00;;
79638;SDS011;69114;49.108;8.280;2023-04-22T03:29:06;14.57;;;9.02;;
79638;SDS011;69114;49.108;8.280;2023-04-22T03:31:31;13.30;;;8.73;;
79638;SDS011;69114;49.108;8.280;2023-04-22T03:33:57;11.83;;;9.17;;
79638;SDS011;69114;49.108;8.280;2023-04-22T03:36:22;12.02;;;8.38;;
79638;SDS011;69114;49.108;8.280;2023-04-22T03:38:47;13.77;;;9.10;;
79638;SDS011;69114;49.108;8.280;2023-04-22T03:41:13;14.13;;;8.20;;
79638;SDS011;69114;49.108;8.280;2023-04-22T03:43:39;14.07;;;9.60;;
79638;SDS011;69114;49.108;8.280;2023-04-22T03:46:04;13.00;;;8.98;;
79638;SDS011;69114;49.108;8.280;2023-04-22T03:48:30;14.55;;;9.00;;
79638;SDS011;69114;49.108;8.280;2023-04-22T03:50:59;13.93;;;8.77;;
79638;SDS011;69114;49.108;8.280;2023-04-22T03:53:25;9.60;;;7.28;;
79638;SDS011;69114;49.108;8.280;2023-04-22T03:55:50;10.73;;;7.28;;
79638;SDS011;69114;49.108;8.280;2023-04-22T03:58:16;11.63;;;7.95;;
79638;SDS011;69114;49.108;8.280;2023-04-22T04:00:41;12.15;;;8.18;;
79638;SDS011;69114;49.108;8.280;2023-04-22T04:03:07;13.35;;;7.60;;
79638;SDS011;69114;49.108;8.280;2023-04-22T04:05:32;13.95;;;8.40;;
79638;SDS011;69114;49.108;8.280;2023-04-22T04:07:57;14.23;;;7.37;;
79638;SDS011;69114;49.108;8.280;2023-04-22T04:10:23;12.60;;;8.57;;
79638;SDS011;69114;49.108;8.280;2023-04-22T04:12:48;11.85;;;8.10;;
79638;SDS011;69114;49.108;8.280;2023-04-22T04:15:13;11.50;;;8.13;;
79638;SDS011;69114;49.108;8.280;2023-04-22T04:17:38;12.00;;;8.60;;
79638;SDS011;69114;49.108;8.280;2023-04-22T04:20:04;12.60;;;9.25;;
79638;SDS011;69114;49.108;8.280;2023-04-22T04:22:31;15.00;;;9.77;;
79638;SDS011;69114;49.108;8.280;2023-04-22T04:24:57;14.52;;;9.85;;
79638;SDS011;69114;49.108;8.280;2023-04-22T04:27:22;15.48;;;9.65;;
79638;SDS011;69114;49.108;8.280;2023-04-22T04:29:48;15.68;;;10.02;;
79638;SDS011;69114;49.108;8.280;2023-04-22T04:32:14;14.18;;;9.13;;
79638;SDS011;69114;49.108;8.280;2023-04-22T04:34:39;12.90;;;8.27;;
79638;SDS011;69114;49.108;8.280;2023-04-22T04:37:06;12.57;;;8.50;;
79638;SDS011;69114;49.108;8.280;2023-04-22T04:39:31;11.38;;;8.43;;
79638;SDS011;69114;49.108;8.280;2023-04-22T04:41:57;13.75;;;8.43;;
79638;SDS011;69114;49.108;8.280;2023-04-22T04:44:24;11.25;;;7.57;;
79638;SDS011;69114;49.108;8.280;2023-04-22T04:46:55;9.52;;;7.22;;
79638;SDS011;69114;49.108;8.280;2023-04-22T04:49:21;12.68;;;8.38;;
79638;SDS011;69114;49.108;8.280;2023-04-22T04:51:47;10.93;;;7.88;;
79638;SDS011;69114;49.108;8.280;2023-04-22T04:54:13;11.82;;;7.82;;
79638;SDS011;69114;49.108;8.280;2023-04-22T04:56:38;11.20;;;8.20;;
79638;SDS011;69114;49.108;8.280;2023-04-22T04:59:04;11.32;;;7.82;;
79638;SDS011;69114;49.108;8.280;2023-04-22T05:01:29;11.93;;;8.90;;
79638;SDS011;69114;49.108;8.280;2023-04-22T05:03:54;11.82;;;8.48;;
79638;SDS011;69114;49.108;8.280;2023-04-22T05:06:20;12.63;;;8.52;;
79638;SDS011;69114;49.108;8.280;2023-04-22T05:08:46;12.68;;;9.07;;
79638;SDS011;69114;49.108;8.280;2023-04-22T05:11:11;10.35;;;7.70;;
79638;SDS011;69114;49.108;8.280;2023-04-22T05:13:36;13.45;;;9.32;;
79638;SDS011;69114;49.108;8.280;2023-04-22T05:16:02;13.90;;;9.07;;
79638;SDS011;69114;49.108;8.280;2023-04-22T05:18:27;15.05;;;9.77;;
79638;SDS011;69114;49.108;8.280;2023-04-22T05:20:53;16.13;;;10.73;;
79638;SDS011;69114;49.108;8.280;2023-04-22T05:23:18;13.82;;;9.57;;
79638;SDS011;69114;49.108;8.280;2023-04-22T05:25:43;14.10;;;9.35;;
79638;SDS011;69114;49.108;8.280;2023-04-22T05:28:09;12.38;;;8.73;;
79638;SDS011;69114;49.108;8.280;2023-04-22T05:30:34;13.50;;;9.40;;
79638;SDS011;69114;49.108;8.280;2023-04-22T05:33:00;14.45;;;10.07;;
79638;SDS011;69114;49.108;8.280;2023-04-22T05:35:25;13.60;;;9.80;;
79638;SDS011;69114;49.108;8.280;2023-04-22T05:37:51;14.98;;;9.95;;
79638;SDS011;69114;49.108;8.280;2023-04-22T05:40:16;14.68;;;9.50;;
79638;SDS011;69114;49.108;8.280;2023-04-22T05:42:41;13.88;;;9.25;;
79638;SDS011;69114;49.108;8.280;2023-04-22T05:45:07;13.05;;;9.27;;
79638;SDS011;69114;49.108;8.280;2023-04-22T05:47:33;13.98;;;9.57;;
79638;SDS011;69114;49.108;8.280;2023-04-22T05:49:58;17.47;;;10.23;;
79638;SDS011;69114;49.108;8.280;2023-04-22T05:52:23;15.40;;;9.97;;
79638;SDS011;69114;49.108;8.280;2023-04-22T05:54:48;12.20;;;9.47;;
79638;SDS011;69114;49.108;8.280;2023-04-22T05:57:14;12.80;;;8.93;;
79638;SDS011;69114;49.108;8.280;2023-04-22T05:59:40;15.75;;;10.52;;
79638;SDS011;69114;49.108;8.280;2023-04-22T06:02:05;14.80;;;10.60;;
79638;SDS011;69114;49.108;8.280;2023-04-22T06:04:30;15.13;;;11.05;;
79638;SDS011;69114;49.108;8.280;2023-04-22T06:06:56;19.95;;;14.18;;
79638;SDS011;69114;49.108;8.280;2023-04-22T06:09:21;19.67;;;13.55;;
79638;SDS011;69114;49.108;8.280;2023-04-22T06:11:47;14.63;;;10.25;;
79638;SDS011;69114;49.108;8.280;2023-04-22T06:14:12;12.85;;;8.80;;
79638;SDS011;69114;49.108;8.280;2023-04-22T06:16:38;14.30;;;9.95;;
79638;SDS011;69114;49.108;8.280;2023-04-22T06:19:04;14.02;;;9.90;;
79638;SDS011;69114;49.108;8.280;2023-04-22T06:21:29;15.93;;;11.52;;
79638;SDS011;69114;49.108;8.280;2023-04-22T06:23:56;13.23;;;10.65;;
79638;SDS011;69114;49.108;8.280;2023-04-22T06:26:21;15.93;;;11.25;;
79638;SDS011;69114;49.108;8.280;2023-04-22T06:28:47;16.75;;;10.60;;
79638;SDS011;69114;49.108;8.280;2023-04-22T06:31:12;17.80;;;10.73;;
79638;SDS011;69114;49.108;8.280;2023-04-22T06:33:38;17.60;;;10.43;;
79638;SDS011;69114;49.108;8.280;2023-04-22T06:36:03;15.65;;;10.77;;
79638;SDS011;69114;49.108;8.280;2023-04-22T06:38:29;13.82;;;9.85;;
79638;SDS011;69114;49.108;8.280;2023-04-22T06:40:54;13.43;;;10.07;;
79638;SDS011;69114;49.108;8.280;2023-04-22T06:43:20;15.10;;;10.30;;
79638;SDS011;69114;49.108;8.280;2023-04-22T06:45:45;14.95;;;9.52;;
79638;SDS011;69114;49.108;8.280;2023-04-22T06:48:10;14.63;;;10.63;;
79638;SDS011;69114;49.108;8.280;2023-04-22T06:50:36;14.20;;;9.83;;
79638;SDS011;69114;49.108;8.280;2023-04-22T06:53:01;14.20;;;9.68;;
79638;SDS011;69114;49.108;8.280;2023-04-22T06:55:26;12.80;;;9.88;;
79638;SDS011;69114;49.108;8.280;2023-04-22T06:57:52;14.30;;;11.02;;
79638;SDS011;69114;49.108;8.280;2023-04-22T07:00:17;15.60;;;11.48;;
79638;SDS011;69114;49.108;8.280;2023-04-22T07:02:43;12.98;;;11.13;;
79638;SDS011;69114;49.108;8.280;2023-04-22T07:05:08;12.00;;;9.60;;
79638;SDS011;69114;49.108;8.280;2023-04-22T07:07:33;12.90;;;10.25;;
79638;SDS011;69114;49.108;8.280;2023-04-22T07:09:59;12.63;;;10.07;;
79638;SDS011;69114;49.108;8.280;2023-04-22T07:12:24;14.77;;;10.40;;
79638;SDS011;69114;49.108;8.280;2023-04-22T07:14:50;11.32;;;8.05;;
79638;SDS011;69114;49.108;8.280;2023-04-22T07:17:15;10.45;;;7.18;;
79638;SDS011;69114;49.108;8.280;2023-04-22T07:19:46;10.05;;;6.50;;
79638;SDS011;69114;49.108;8.280;2023-04-22T07:22:12;9.45;;;7.15;;
79638;SDS011;69114;49.108;8.280;2023-04-22T07:24:38;8.45;;;6.70;;
79638;SDS011;69114;49.108;8.280;2023-04-22T07:27:04;8.52;;;6.78;;
79638;SDS011;69114;49.108;8.280;2023-04-22T07:29:29;9.25;;;6.43;;
79638;SDS011;69114;49.108;8.280;2023-04-22T07:31:54;7.38;;;5.63;;
79638;SDS011;69114;49.108;8.280;2023-04-22T07:34:20;7.03;;;5.47;;
79638;SDS011;69114;49.108;8.280;2023-04-22T07:36:55;8.93;;;6.32;;
79638;SDS011;69114;49.108;8.280;2023-04-22T07:39:21;8.77;;;6.20;;
79638;SDS011;69114;49.108;8.280;2023-04-22T07:41:46;7.25;;;5.47;;
79638;SDS011;69114;49.108;8.280;2023-04-22T07:44:12;8.52;;;5.47;;
79638;SDS011;69114;49.108;8.280;2023-04-22T07:46:41;5.57;;;3.90;;
79638;SDS011;69114;49.108;8.280;2023-04-22T07:49:07;6.47;;;3.97;;
79638;SDS011;69114;49.108;8.280;2023-04-22T07:51:32;6.20;;;4.40;;
79638;SDS011;69114;49.108;8.280;2023-04-22T07:53:58;6.40;;;3.85;;
79638;SDS011;69114;49.108;8.280;2023-04-22T07:56:23;6.40;;;3.78;;
79638;SDS011;69114;49.108;8.280;2023-04-22T07:58:48;7.38;;;3.97;;
79638;SDS011;69114;49.108;8.280;2023-04-22T08:01:13;4.40;;;3.30;;
79638;SDS011;69114;49.108;8.280;2023-04-22T08:03:39;4.18;;;3.17;;
79638;SDS011;69114;49.108;8.280;2023-04-22T08:06:04;3.73;;;3.20;;
79638;SDS011;69114;49.108;8.280;2023-04-22T08:08:29;4.65;;;3.13;;
79638;SDS011;69114;49.108;8.280;2023-04-22T08:10:55;5.50;;;3.40;;
79638;SDS011;69114;49.108;8.280;2023-04-22T08:13:20;4.13;;;3.25;;
79638;SDS011;69114;49.108;8.280;2023-04-22T08:15:45;3.85;;;2.95;;
79638;SDS011;69114;49.108;8.280;2023-04-22T08:18:11;4.40;;;3.70;;
79638;SDS011;69114;49.108;8.280;2023-04-22T08:20:36;5.53;;;3.57;;
79638;SDS011;69114;49.108;8.280;2023-04-22T08:23:01;3.63;;;2.90;;
79638;SDS011;69114;49.108;8.280;2023-04-22T08:25:27;4.90;;;3.20;;
79638;SDS011;69114;49.108;8.280;2023-04-22T08:27:53;4.05;;;3.17;;
79638;SDS011;69114;49.108;8.280;2023-04-22T08:30:19;4.30;;;3.53;;
79638;SDS011;69114;49.108;8.280;2023-04-22T08:32:44;4.43;;;3.10;;
79638;SDS011;69114;49.108;8.280;2023-04-22T08:35:10;4.45;;;3.28;;
79638;SDS011;69114;49.108;8.280;2023-04-22T08:37:36;4.95;;;3.70;;
79638;SDS011;69114;49.108;8.280;2023-04-22T08:40:01;4.85;;;3.80;;
79638;SDS011;69114;49.108;8.280;2023-04-22T08:42:28;5.90;;;3.95;;
79638;SDS011;69114;49.108;8.280;2023-04-22T08:44:54;7.03;;;4.40;;
79638;SDS011;69114;49.108;8.280;2023-04-22T08:47:20;4.35;;;3.80;;
79638;SDS011;69114;49.108;8.280;2023-04-22T08:49:46;4.30;;;3.63;;
79638;SDS011;69114;49.108;8.280;2023-04-22T08:52:12;3.80;;;3.13;;
79638;SDS011;69114;49.108;8.280;2023-04-22T08:54:40;5.25;;;3.50;;
79638;SDS011;69114;49.108;8.280;2023-04-22T08:57:06;6.25;;;4.65;;
79638;SDS011;69114;49.108;8.280;2023-04-22T08:59:32;6.28;;;4.80;;
79638;SDS011;69114;49.108;8.280;2023-04-22T09:01:59;5.70;;;4.95;;
79638;SDS011;69114;49.108;8.280;2023-04-22T09:04:27;7.03;;;5.05;;
79638;SDS011;69114;49.108;8.280;2023-04-22T09:06:52;5.53;;;4.43;;
79638;SDS011;69114;49.108;8.280;2023-04-22T09:09:18;7.78;;;4.78;;
79638;SDS011;69114;49.108;8.280;2023-04-22T09:11:43;4.90;;;3.85;;
79638;SDS011;69114;49.108;8.280;2023-04-22T09:14:09;7.13;;;4.07;;
79638;SDS011;69114;49.108;8.280;2023-04-22T09:16:38;6.72;;;5.00;;
79638;SDS011;69114;49.108;8.280;2023-04-22T09:19:11;6.85;;;4.97;;
79638;SDS011;69114;49.108;8.280;2023-04-22T09:21:38;6.72;;;5.15;;
79638;SDS011;69114;49.108;8.280;2023-04-22T09:24:09;8.07;;;5.28;;
79638;SDS011;69114;49.108;8.280;2023-04-22T09:26:39;6.63;;;4.85;;
79638;SDS011;69114;49.108;8.280;2023-04-22T09:29:05;5.45;;;4.68;;
79638;SDS011;69114;49.108;8.280;2023-04-22T09:31:33;6.93;;;4.80;;
79638;SDS011;69114;49.108;8.280;2023-04-22T09:34:00;7.72;;;4.57;;
79638;SDS011;69114;49.108;8.280;2023-04-22T09:36:26;5.43;;;4.40;;
79638;SDS011;69114;49.108;8.280;2023-04-22T09:38:53;8.20;;;4.63;;
79638;SDS011;69114;49.108;8.280;2023-04-22T09:41:30;5.15;;;4.40;;
79638;SDS011;69114;49.108;8.280;2023-04-22T09:44:00;5.50;;;3.95;;
79638;SDS011;69114;49.108;8.280;2023-04-22T09:46:27;6.63;;;4.53;;
79638;SDS011;69114;49.108;8.280;2023-04-22T09:48:55;5.47;;;4.55;;
79638;SDS011;69114;49.108;8.280;2023-04-22T09:51:23;5.55;;;4.20;;
79638;SDS011;69114;49.108;8.280;2023-04-22T09:54:02;6.70;;;5.10;;
79638;SDS011;69114;49.108;8.280;2023-04-22T09:56:49;5.57;;;4.28;;
79638;SDS011;69114;49.108;8.280;2023-04-22T09:59:23;5.40;;;4.22;;
79638;SDS011;69114;49.108;8.280;2023-04-22T10:01:54;5.07;;;4.43;;
79638;SDS011;69114;49.108;8.280;2023-04-22T10:04:20;8.55;;;4.80;;
79638;SDS011;69114;49.108;8.280;2023-04-22T10:06:47;7.80;;;4.50;;
79638;SDS011;69114;49.108;8.280;2023-04-22T10:09:13;4.65;;;4.07;;
79638;SDS011;69114;49.108;8.280;2023-04-22T10:11:42;5.90;;;3.80;;
79638;SDS011;69114;49.108;8.280;2023-04-22T10:14:08;3.72;;;3.33;;
79638;SDS011;69114;49.108;8.280;2023-04-22T10:16:35;4.18;;;2.83;;
79638;SDS011;69114;49.108;8.280;2023-04-22T10:19:03;3.85;;;2.90;;
79638;SDS011;69114;49.108;8.280;2023-04-22T10:21:31;3.10;;;2.55;;
79638;SDS011;69114;49.108;8.280;2023-04-22T10:23:58;3.55;;;2.42;;
79638;SDS011;69114;49.108;8.280;2023-04-22T10:26:47;6.13;;;2.70;;
79638;SDS011;69114;49.108;8.280;2023-04-22T10:29:13;3.47;;;2.40;;
79638;SDS011;69114;49.108;8.280;2023-04-22T10:31:47;2.88;;;2.40;;
79638;SDS011;69114;49.108;8.280;2023-04-22T10:34:17;4.45;;;2.70;;
79638;SDS011;69114;49.108;8.280;2023-04-22T10:36:57;3.92;;;2.45;;
79638;SDS011;69114;49.108;8.280;2023-04-22T10:39:29;4.13;;;2.35;;
79638;SDS011;69114;49.108;8.280;2023-04-22T10:42:12;3.70;;;2.60;;
79638;SDS011;69114;49.108;8.280;2023-04-22T10:44:45;2.85;;;2.50;;
79638;SDS011;69114;49.108;8.280;2023-04-22T10:47:23;4.68;;;2.50;;
79638;SDS011;69114;49.108;8.280;2023-04-22T10:50:26;3.50;;;2.45;;
79638;SDS011;69114;49.108;8.280;2023-04-22T10:55:50;5.20;;;2.33;;
79638;SDS011;69114;49.108;8.280;2023-04-22T10:58:20;3.20;;;2.30;;
79638;SDS011;69114;49.108;8.280;2023-04-22T11:00:47;3.05;;;2.25;;
79638;SDS011;69114;49.108;8.280;2023-04-22T11:03:17;5.28;;;2.58;;
79638;SDS011;69114;49.108;8.280;2023-04-22T11:05:44;3.78;;;2.13;;
79638;SDS011;69114;49.108;8.280;2023-04-22T11:08:20;3.55;;;2.42;;
79638;SDS011;69114;49.108;8.280;2023-04-22T11:10:48;3.92;;;2.25;;
79638;SDS011;69114;49.108;8.280;2023-04-22T11:13:18;3.10;;;2.30;;
79638;SDS011;69114;49.108;8.280;2023-04-22T11:15:46;4.35;;;2.45;;
79638;SDS011;69114;49.108;8.280;2023-04-22T11:18:17;3.65;;;2.63;;
79638;SDS011;69114;49.108;8.280;2023-04-22T11:20:45;3.70;;;2.40;;
79638;SDS011;69114;49.108;8.280;2023-04-22T11:23:15;4.95;;;2.70;;
79638;SDS011;69114;49.108;8.280;2023-04-22T11:28:07;4.03;;;2.10;;
79638;SDS011;69114;49.108;8.280;2023-04-22T11:30:32;4.03;;;2.47;;
79638;SDS011;69114;49.108;8.280;2023-04-22T11:32:58;2.95;;;2.30;;
79638;SDS011;69114;49.108;8.280;2023-04-22T11:35:28;4.25;;;2.65;;
79638;SDS011;69114;49.108;8.280;2023-04-22T11:37:56;4.72;;;2.60;;
79638;SDS011;69114;49.108;8.280;2023-04-22T11:42:51;4.45;;;2.40;;
79638;SDS011;69114;49.108;8.280;2023-04-22T11:45:16;3.90;;;2.55;;
79638;SDS011;69114;49.108;8.280;2023-04-22T11:47:42;3.22;;;2.50;;
79638;SDS011;69114;49.108;8.280;2023-04-22T11:50:09;3.28;;;2.30;;
79638;SDS011;69114;49.108;8.280;2023-04-22T11:55:18;4.43;;;2.90;;
79638;SDS011;69114;49.108;8.280;2023-04-22T11:57:44;4.18;;;2.55;;
79638;SDS011;69114;49.108;8.280;2023-04-22T12:00:11;3.13;;;2.25;;
79638;SDS011;69114;49.108;8.280;2023-04-22T12:02:39;2.90;;;2.25;;
79638;SDS011;69114;49.108;8.280;2023-04-22T12:05:08;2.83;;;2.30;;
79638;SDS011;69114;49.108;8.280;2023-04-22T12:07:36;6.05;;;3.00;;
79638;SDS011;69114;49.108;8.280;2023-04-22T12:10:03;3.95;;;2.67;;
79638;SDS011;69114;49.108;8.280;2023-04-22T12:12:31;3.25;;;2.40;;
79638;SDS011;69114;49.108;8.280;2023-04-22T12:15:05;3.88;;;2.30;;
79638;SDS011;69114;49.108;8.280;2023-04-22T12:17:31;3.38;;;2.60;;
79638;SDS011;69114;49.108;8.280;2023-04-22T12:19:57;3.45;;;2.50;;
79638;SDS011;69114;49.108;8.280;2023-04-22T12:22:25;2.90;;;2.28;;
79638;SDS011;69114;49.108;8.280;2023-04-22T12:24:52;3.47;;;2.55;;
79638;SDS011;69114;49.108;8.280;2023-04-22T12:27:18;4.43;;;2.50;;
79638;SDS011;69114;49.108;8.280;2023-04-22T12:29:54;3.80;;;2.70;;
79638;SDS011;69114;49.108;8.280;2023-04-22T12:32:20;5.35;;;2.78;;
79638;SDS011;69114;49.108;8.280;2023-04-22T12:34:47;4.57;;;2.30;;
79638;SDS011;69114;49.108;8.280;2023-04-22T12:37:13;6.03;;;2.40;;
79638;SDS011;69114;49.108;8.280;2023-04-22T12:39:38;3.47;;;2.13;;
79638;SDS011;69114;49.108;8.280;2023-04-22T12:42:04;3.35;;;2.30;;
79638;SDS011;69114;49.108;8.280;2023-04-22T12:44:30;4.20;;;1.92;;
79638;SDS011;69114;49.108;8.280;2023-04-22T12:46:56;4.78;;;2.25;;
79638;SDS011;69114;49.108;8.280;2023-04-22T12:49:21;3.30;;;2.22;;
79638;SDS011;69114;49.108;8.280;2023-04-22T12:51:46;4.22;;;2.35;;
79638;SDS011;69114;49.108;8.280;2023-04-22T12:54:12;3.58;;;2.50;;
79638;SDS011;69114;49.108;8.280;2023-04-22T12:56:37;2.65;;;1.88;;
79638;SDS011;69114;49.108;8.280;2023-04-22T12:59:02;3.97;;;2.38;;
79638;SDS011;69114;49.108;8.280;2023-04-22T13:01:28;6.78;;;2.10;;
79638;SDS011;69114;49.108;8.280;2023-04-22T13:03:54;3.47;;;2.00;;
79638;SDS011;69114;49.108;8.280;2023-04-22T13:06:20;3.53;;;2.13;;
79638;SDS011;69114;49.108;8.280;2023-04-22T13:08:45;3.03;;;2.20;;
79638;SDS011;69114;49.108;8.280;2023-04-22T13:11:11;4.45;;;2.35;;
79638;SDS011;69114;49.108;8.280;2023-04-22T13:13:36;3.13;;;2.00;;
79638;SDS011;69114;49.108;8.280;2023-04-22T13:16:01;3.13;;;2.10;;
79638;SDS011;69114;49.108;8.280;2023-04-22T13:18:36;4.25;;;2.00;;
79638;SDS011;69114;49.108;8.280;2023-04-22T13:21:01;2.78;;;1.65;;
79638;SDS011;69114;49.108;8.280;2023-04-22T13:23:27;2.80;;;1.80;;
79638;SDS011;69114;49.108;8.280;2023-04-22T13:25:52;2.92;;;1.95;;
79638;SDS011;69114;49.108;8.280;2023-04-22T13:28:18;3.13;;;2.03;;
79638;SDS011;69114;49.108;8.280;2023-04-22T13:30:43;3.47;;;1.88;;
79638;SDS011;69114;49.108;8.280;2023-04-22T13:33:09;3.80;;;1.90;;
79638;SDS011;69114;49.108;8.280;2023-04-22T13:35:34;4.07;;;1.80;;
79638;SDS011;69114;49.108;8.280;2023-04-22T13:38:00;3.85;;;2.10;;
79638;SDS011;69114;49.108;8.280;2023-04-22T13:40:26;3.40;;;1.80;;
79638;SDS011;69114;49.108;8.280;2023-04-22T13:42:52;2.50;;;1.98;;
79638;SDS011;69114;49.108;8.280;2023-04-22T13:45:17;5.00;;;2.40;;
79638;SDS011;69114;49.108;8.280;2023-04-22T13:47:43;2.97;;;2.08;;
79638;SDS011;69114;49.108;8.280;2023-04-22T13:50:08;4.68;;;2.33;;
79638;SDS011;69114;49.108;8.280;2023-04-22T13:52:34;3.00;;;2.03;;
79638;SDS011;69114;49.108;8.280;2023-04-22T13:55:01;2.92;;;1.83;;
79638;SDS011;69114;49.108;8.280;2023-04-22T13:57:27;2.40;;;1.80;;
79638;SDS011;69114;49.108;8.280;2023-04-22T13:59:52;3.03;;;1.75;;
79638;SDS011;69114;49.108;8.280;2023-04-22T14:02:18;3.37;;;2.00;;
79638;SDS011;69114;49.108;8.280;2023-04-22T14:04:43;3.30;;;2.00;;
79638;SDS011;69114;49.108;8.280;2023-04-22T14:07:08;3.85;;;2.33;;
79638;SDS011;69114;49.108;8.280;2023-04-22T14:09:34;5.13;;;2.20;;
79638;SDS011;69114;49.108;8.280;2023-04-22T14:11:59;3.40;;;1.85;;
79638;SDS011;69114;49.108;8.280;2023-04-22T14:14:37;3.08;;;1.92;;
79638;SDS011;69114;49.108;8.280;2023-04-22T14:17:03;2.80;;;1.90;;
79638;SDS011;69114;49.108;8.280;2023-04-22T14:19:28;2.58;;;1.90;;
79638;SDS011;69114;49.108;8.280;2023-04-22T14:21:56;2.35;;;1.80;;
79638;SDS011;69114;49.108;8.280;2023-04-22T14:24:22;3.20;;;1.88;;
79638;SDS011;69114;49.108;8.280;2023-04-22T14:26:48;3.83;;;1.90;;
79638;SDS011;69114;49.108;8.280;2023-04-22T14:29:16;3.25;;;1.80;;
79638;SDS011;69114;49.108;8.280;2023-04-22T14:31:44;2.88;;;2.03;;
79638;SDS011;69114;49.108;8.280;2023-04-22T14:34:10;4.55;;;2.30;;
79638;SDS011;69114;49.108;8.280;2023-04-22T14:36:35;2.70;;;1.75;;
79638;SDS011;69114;49.108;8.280;2023-04-22T14:39:01;3.70;;;2.03;;
79638;SDS011;69114;49.108;8.280;2023-04-22T14:41:26;3.35;;;2.17;;
79638;SDS011;69114;49.108;8.280;2023-04-22T14:43:52;4.20;;;2.10;;
79638;SDS011;69114;49.108;8.280;2023-04-22T14:46:17;3.88;;;2.17;;